Time;durP1;ratioP1;P1;durP2;ratioP2;P2;SDS_P1;SDS_P2;PMS_P1;PMS_P2;Temp;Humidity;BMP_temperature;BMP_pressure;BME280_temperature;BME280_humidity;BME280_pressure;Samples;Min_cycle;Max_cycle;Signal;HPM_P1;HPM_P2
2023/02/15 00:01:30;;;;;;;4.20;1.40;;;;;;;6.74;49.48;101397.88;108170;1274;21991;-67
2023/02/15 00:03:56;;;;;;;4.00;1.60;;;;;;;6.70;49.88;101398.32;108124;1288;22025;-66
2023/02/15 00:06:22;;;;;;;5.20;2.00;;;;;;;6.66;49.84;101398.59;108002;1281;21987;-67
2023/02/15 00:08:48;;;;;;;4.00;1.50;;;;;;;6.63;49.71;101403.58;108063;1288;21958;-60
2023/02/15 00:14:05;;;;;;;3.90;1.10;;;;;;;6.50;49.67;101404.02;108048;1287;22006;-67
2023/02/15 00:16:30;;;;;;;3.90;1.70;;;;;;;6.51;49.57;101405.96;107370;1287;1002784;-68
2023/02/15 00:18:56;;;;;;;2.50;1.10;;;;;;;6.51;49.76;101404.73;108112;1287;21997;-67
2023/02/15 00:21:22;;;;;;;3.00;1.40;;;;;;;6.42;49.52;101404.73;108171;1287;21999;-67
2023/02/15 00:23:51;;;;;;;5.10;1.20;;;;;;;6.38;49.57;101403.25;108002;1288;21993;-60
2023/02/15 00:26:17;;;;;;;3.00;1.30;;;;;;;6.35;49.52;101406.33;107979;1286;21999;-67
2023/02/15 00:28:43;;;;;;;3.40;1.20;;;;;;;6.35;49.58;101405.11;108044;1286;22105;-67
2023/02/15 00:31:10;;;;;;;6.20;1.60;;;;;;;6.33;49.55;101407.14;108124;1285;21989;-61
2023/02/15 00:33:36;;;;;;;3.60;1.00;;;;;;;6.30;49.44;101406.73;108096;1287;22086;-67
2023/02/15 00:36:03;;;;;;;4.50;1.50;;;;;;;6.23;49.49;101409.72;108030;1288;22006;-67
2023/02/15 00:38:30;;;;;;;2.00;0.90;;;;;;;6.17;49.66;101411.87;108028;1285;22747;-61
2023/02/15 00:40:59;;;;;;;4.30;1.20;;;;;;;6.14;49.54;101415.11;108064;1283;22004;-60
2023/02/15 00:43:25;;;;;;;5.40;1.00;;;;;;;6.05;49.55;101414.55;108058;1288;22032;-61
2023/02/15 00:45:52;;;;;;;2.90;0.90;;;;;;;6.01;49.80;101411.13;108062;1288;23134;-67
2023/02/15 00:48:19;;;;;;;2.90;0.80;;;;;;;5.99;49.73;101415.41;107990;1288;23450;-67
2023/02/15 00:50:52;;;;;;;3.20;1.20;;;;;;;5.92;49.78;101419.10;107991;1287;21994;-67
2023/02/15 00:53:19;;;;;;;3.70;1.10;;;;;;;5.88;49.84;101422.67;107983;1287;22033;-61
2023/02/15 00:55:45;;;;;;;2.20;1.20;;;;;;;5.87;49.78;101424.20;107991;1281;21999;-67
2023/02/15 00:58:11;;;;;;;6.30;1.20;;;;;;;5.85;49.88;101425.17;107974;1287;21990;-67
2023/02/15 01:00:37;;;;;;;2.30;0.90;;;;;;;5.85;49.41;101429.04;107993;1280;22003;-61
2023/02/15 01:03:04;;;;;;;2.90;1.00;;;;;;;5.82;49.59;101427.91;108095;1288;21997;-61
2023/02/15 01:05:30;;;;;;;2.40;0.80;;;;;;;5.79;49.53;101432.91;108030;1288;22457;-67
2023/02/15 01:07:57;;;;;;;3.00;1.10;;;;;;;5.81;49.38;101437.11;108040;1288;21998;-61
2023/02/15 01:10:23;;;;;;;1.70;0.90;;;;;;;5.74;49.27;101437.30;107344;1287;1003352;-67
2023/02/15 01:12:52;;;;;;;1.60;0.70;;;;;;;5.64;49.21;101434.27;107984;1287;21956;-60
2023/02/15 01:15:18;;;;;;;2.20;0.80;;;;;;;5.57;49.32;101434.09;108008;1287;22503;-60
2023/02/15 01:17:50;;;;;;;1.60;0.60;;;;;;;5.59;49.27;101432.23;107986;1288;22000;-60
2023/02/15 01:20:24;;;;;;;2.50;0.80;;;;;;;5.58;49.51;101433.95;108086;1288;22024;-59
2023/02/15 01:22:51;;;;;;;2.40;1.20;;;;;;;5.61;49.41;101436.64;108055;1288;22001;-66
2023/02/15 01:25:17;;;;;;;4.30;1.40;;;;;;;5.60;49.31;101437.64;108098;1285;22458;-66
2023/02/15 01:27:44;;;;;;;3.10;0.90;;;;;;;5.59;49.32;101436.75;108036;1287;21994;-66
2023/02/15 01:30:11;;;;;;;3.10;1.00;;;;;;;5.57;49.53;101437.23;108077;1288;21992;-67
2023/02/15 01:32:38;;;;;;;3.30;0.90;;;;;;;5.57;49.64;101439.32;107989;1286;22057;-60
2023/02/15 01:35:09;;;;;;;2.10;0.70;;;;;;;5.55;49.60;101437.52;108024;1288;21991;-60
2023/02/15 01:37:35;;;;;;;1.70;0.70;;;;;;;5.51;49.59;101437.77;108045;1288;22111;-61
2023/02/15 01:40:02;;;;;;;2.30;0.70;;;;;;;5.50;49.63;101439.66;108074;1288;22017;-68
2023/02/15 01:42:28;;;;;;;2.00;0.90;;;;;;;5.42;49.67;101442.77;107315;1288;1002958;-66
2023/02/15 01:44:56;;;;;;;2.80;1.10;;;;;;;5.42;49.81;101443.81;108075;1288;22041;-66
2023/02/15 01:47:44;;;;;;;1.40;0.50;;;;;;;5.42;49.82;101447.81;108032;1288;22464;-66
2023/02/15 01:50:18;;;;;;;2.20;0.80;;;;;;;5.41;49.62;101449.52;107998;1288;22096;-66
2023/02/15 01:52:50;;;;;;;2.90;0.70;;;;;;;5.38;49.89;101449.63;108040;1288;21998;-60
2023/02/15 01:55:17;;;;;;;2.80;0.90;;;;;;;5.40;50.18;101450.36;108018;1288;22059;-60
2023/02/15 01:57:43;;;;;;;2.10;0.70;;;;;;;5.41;50.07;101448.31;107892;1288;22581;-67
2023/02/15 02:00:12;;;;;;;2.60;1.00;;;;;;;5.38;50.13;101447.73;108109;1288;21994;-60
2023/02/15 02:02:39;;;;;;;2.00;0.70;;;;;;;5.44;49.99;101448.05;107341;1288;1003088;-61
2023/02/15 02:05:08;;;;;;;2.70;1.00;;;;;;;5.45;49.90;101444.77;107340;1288;1003971;-60
2023/02/15 02:07:38;;;;;;;2.40;1.00;;;;;;;5.49;49.89;101436.68;107263;1288;1002791;-60
2023/02/15 02:10:05;;;;;;;3.90;1.30;;;;;;;5.50;49.92;101435.83;107922;1288;21997;-60
2023/02/15 02:12:31;;;;;;;2.90;0.90;;;;;;;5.54;49.82;101434.88;108062;1288;22033;-66
2023/02/15 02:14:57;;;;;;;4.30;1.20;;;;;;;5.55;50.10;101437.34;108038;1288;23740;-60
2023/02/15 02:17:54;;;;;;;3.20;1.00;;;;;;;5.55;49.89;101434.39;107198;1288;1002222;-59
2023/02/15 02:20:25;;;;;;;4.30;1.10;;;;;;;5.54;49.97;101438.20;108034;1288;21995;-67
2023/02/15 02:23:17;;;;;;;2.50;0.80;;;;;;;5.54;50.08;101443.08;107227;1288;1002514;-66
2023/02/15 02:25:49;;;;;;;2.50;0.80;;;;;;;5.54;50.00;101444.28;108003;1288;21993;-67
2023/02/15 02:28:33;;;;;;;3.90;0.80;;;;;;;5.51;50.06;101447.88;107948;1288;22030;-60
2023/02/15 02:31:11;;;;;;;2.80;1.10;;;;;;;5.46;50.13;101451.59;108092;1288;21999;-60
2023/02/15 02:34:15;;;;;;;7.30;1.50;;;;;;;5.39;50.20;101451.23;108060;1288;21992;-67
2023/02/15 02:36:55;;;;;;;2.40;0.90;;;;;;;5.40;50.31;101459.61;107976;1288;21996;-60
2023/02/15 02:39:28;;;;;;;2.20;1.00;;;;;;;5.40;50.48;101459.60;108132;1288;22047;-60
2023/02/15 02:42:30;;;;;;;5.50;2.00;;;;;;;5.37;50.19;101463.54;108012;1288;22037;-66
2023/02/15 02:45:03;;;;;;;2.70;0.90;;;;;;;5.37;50.40;101470.50;107429;1287;1004112;-66
2023/02/15 02:47:30;;;;;;;4.30;1.00;;;;;;;5.40;50.53;101472.64;108172;1288;22024;-60
2023/02/15 02:50:03;;;;;;;2.00;0.70;;;;;;;5.37;50.52;101474.84;108046;1288;22571;-67
2023/02/15 02:52:37;;;;;;;3.40;0.70;;;;;;;5.35;50.59;101475.84;108062;1288;22024;-66
2023/02/15 02:55:08;;;;;;;4.20;1.10;;;;;;;5.26;50.68;101479.77;107995;1288;22001;-60
2023/02/15 02:57:34;;;;;;;2.10;0.70;;;;;;;5.34;50.52;101484.33;108053;1288;21999;-61
2023/02/15 03:00:00;;;;;;;2.70;0.80;;;;;;;5.31;50.71;101483.55;108111;1288;22042;-60
2023/02/15 03:02:29;;;;;;;2.40;0.90;;;;;;;5.29;50.60;101485.26;108023;1288;22035;-67
2023/02/15 03:04:58;;;;;;;2.20;0.60;;;;;;;5.26;50.69;101484.65;108091;1288;24323;-60
2023/02/15 03:07:25;;;;;;;2.50;0.90;;;;;;;5.27;50.62;101483.47;108153;1288;23130;-65
2023/02/15 03:09:51;;;;;;;1.70;0.80;;;;;;;5.29;50.45;101483.17;108014;1288;22014;-65
2023/02/15 03:12:24;;;;;;;2.70;0.80;;;;;;;5.27;50.72;101481.90;107987;1288;22019;-65
2023/02/15 03:15:17;;;;;;;4.10;0.70;;;;;;;5.28;50.42;101481.22;107317;1288;1002446;-65
2023/02/15 03:17:45;;;;;;;4.30;1.00;;;;;;;5.21;50.22;101482.77;107897;1288;22001;-66
2023/02/15 03:20:15;;;;;;;4.10;0.90;;;;;;;5.15;50.61;101486.27;108010;1288;22031;-66
2023/02/15 03:22:58;;;;;;;2.30;0.60;;;;;;;5.10;50.66;101489.61;107970;1288;22035;-59
2023/02/15 03:25:27;;;;;;;3.90;0.70;;;;;;;5.11;50.68;101493.30;107977;1281;21996;-66
2023/02/15 03:27:55;;;;;;;3.20;0.70;;;;;;;5.06;50.68;101495.59;107971;1288;21994;-59
2023/02/15 03:30:21;;;;;;;2.00;0.70;;;;;;;5.07;50.55;101497.86;108127;1288;22030;-65
2023/02/15 03:32:47;;;;;;;2.20;0.80;;;;;;;5.08;50.58;101501.38;108047;1288;21995;-64
2023/02/15 03:35:13;;;;;;;1.90;0.70;;;;;;;5.05;50.40;101505.29;108147;1288;21999;-65
2023/02/15 03:37:58;;;;;;;2.10;0.80;;;;;;;4.99;50.75;101509.83;107264;1288;1003115;-64
2023/02/15 03:43:30;;;;;;;1.90;0.70;;;;;;;4.95;50.63;101513.01;107978;1288;22013;-59
2023/02/15 03:45:59;;;;;;;4.30;0.80;;;;;;;5.00;50.63;101514.02;108126;1288;22156;-59
2023/02/15 03:48:33;;;;;;;4.30;0.90;;;;;;;4.99;50.64;101513.30;108073;1288;22059;-60
2023/02/15 03:53:50;;;;;;;2.80;0.80;;;;;;;4.93;50.72;101517.14;108109;1287;22031;-62
2023/02/15 03:56:16;;;;;;;1.60;0.60;;;;;;;4.94;50.76;101521.84;107848;1288;21993;-59
2023/02/15 04:04:18;;;;;;;4.50;1.00;;;;;;;4.88;51.00;101522.89;107987;1288;21996;-66
2023/02/15 04:06:44;;;;;;;2.90;1.00;;;;;;;4.88;51.06;101521.84;108084;1288;22000;-60
2023/02/15 04:11:53;;;;;;;3.10;0.80;;;;;;;4.89;50.86;101528.66;108087;1287;21991;-60
2023/02/15 04:17:12;;;;;;;4.00;0.90;;;;;;;4.89;51.12;101532.84;107921;1287;22037;-60
2023/02/15 04:25:13;;;;;;;2.90;0.90;;;;;;;4.91;50.84;101545.76;108031;1288;22040;-61
2023/02/15 04:27:47;;;;;;;2.00;1.00;;;;;;;4.98;51.01;101544.05;108042;1286;21985;-59
2023/02/15 04:30:14;;;;;;;3.30;1.10;;;;;;;4.99;50.83;101549.83;108095;1287;21995;-66
2023/02/15 04:32:39;;;;;;;4.30;0.90;;;;;;;5.05;50.68;101555.92;108184;1287;22112;-60
2023/02/15 04:35:05;;;;;;;2.50;0.80;;;;;;;5.10;50.81;101556.23;108173;1287;21998;-59
2023/02/15 04:37:34;;;;;;;2.90;0.90;;;;;;;5.12;50.92;101559.58;108095;1288;21998;-66
2023/02/15 04:40:00;;;;;;;2.80;1.20;;;;;;;5.12;50.82;101560.99;107997;1288;22032;-60
2023/02/15 04:42:26;;;;;;;3.80;1.20;;;;;;;5.18;50.89;101559.60;108013;1288;21989;-66
2023/02/15 04:44:52;;;;;;;2.60;0.80;;;;;;;5.24;50.89;101565.52;108064;1285;21992;-59
2023/02/15 04:47:18;;;;;;;3.20;1.10;;;;;;;5.25;50.79;101566.42;108086;1279;22041;-65
2023/02/15 04:49:44;;;;;;;3.90;1.40;;;;;;;5.26;50.83;101568.17;108087;1287;22109;-66
2023/02/15 04:52:10;;;;;;;2.70;1.00;;;;;;;5.32;50.89;101566.11;107968;1288;22158;-66
2023/02/15 04:54:37;;;;;;;4.50;1.30;;;;;;;5.33;50.91;101569.27;107990;1288;21991;-59
2023/02/15 04:57:04;;;;;;;27.90;3.30;;;;;;;5.36;50.73;101571.76;107969;1287;23618;-66
2023/02/15 04:59:29;;;;;;;3.80;1.10;;;;;;;5.36;51.09;101568.98;108051;1288;22108;-60
2023/02/15 05:01:55;;;;;;;3.90;1.40;;;;;;;5.42;50.81;101571.08;107954;1287;21999;-66
2023/02/15 05:04:21;;;;;;;4.30;1.50;;;;;;;5.47;50.93;101567.91;108028;1287;21987;-66
2023/02/15 05:06:47;;;;;;;2.90;1.50;;;;;;;5.50;50.99;101571.64;107965;1286;23061;-67
2023/02/15 05:09:17;;;;;;;5.20;1.10;;;;;;;5.53;51.04;101572.92;107904;1280;23061;-66
2023/02/15 05:11:43;;;;;;;2.90;1.00;;;;;;;5.57;50.89;101573.90;108002;1288;22021;-61
2023/02/15 05:14:09;;;;;;;2.20;1.10;;;;;;;5.60;50.69;101574.52;108068;1287;22034;-67
2023/02/15 05:16:36;;;;;;;5.40;1.10;;;;;;;5.66;50.56;101575.38;108044;1288;22086;-67
2023/02/15 05:19:02;;;;;;;3.80;0.90;;;;;;;5.71;50.85;101574.48;108016;1287;22002;-67
2023/02/15 05:21:30;;;;;;;5.90;1.10;;;;;;;5.74;50.86;101576.30;108057;1288;21988;-61
2023/02/15 05:23:55;;;;;;;2.90;1.00;;;;;;;5.81;50.85;101576.11;108015;1287;22004;-60
2023/02/15 05:29:08;;;;;;;2.80;0.90;;;;;;;5.99;50.47;101579.41;108007;1287;22863;-61
2023/02/15 05:31:33;;;;;;;7.10;1.90;;;;;;;6.04;50.66;101583.02;108047;1288;21998;-67
2023/02/15 05:33:59;;;;;;;8.60;1.40;;;;;;;6.13;50.76;101587.26;107997;1288;22044;-66
2023/02/15 05:36:25;;;;;;;4.20;1.20;;;;;;;6.20;50.58;101594.58;107394;1283;1003226;-61
2023/02/15 05:38:50;;;;;;;4.00;1.40;;;;;;;6.17;50.31;101603.58;108091;1287;22037;-67
2023/02/15 05:41:16;;;;;;;4.90;1.40;;;;;;;6.19;50.25;101605.00;108111;1287;21987;-66
2023/02/15 05:43:42;;;;;;;3.00;1.10;;;;;;;6.22;50.30;101601.95;108116;1287;21987;-67
2023/02/15 05:46:08;;;;;;;6.50;1.10;;;;;;;6.25;50.27;101600.27;108068;1288;22045;-67
2023/02/15 05:48:35;;;;;;;4.40;1.50;;;;;;;6.28;50.04;101597.56;108058;1288;23739;-67
2023/02/15 05:51:06;;;;;;;6.10;1.60;;;;;;;6.32;50.54;101596.45;108031;1287;23577;-61
2023/02/15 05:53:34;;;;;;;8.00;1.40;;;;;;;6.38;50.33;101596.24;108011;1288;21990;-61
2023/02/15 05:56:00;;;;;;;4.40;1.40;;;;;;;6.44;50.24;101599.68;107348;1288;1003212;-61
2023/02/15 05:58:26;;;;;;;7.10;1.30;;;;;;;6.47;50.38;101604.29;107925;1287;22002;-67
2023/02/15 06:00:53;;;;;;;3.80;0.80;;;;;;;6.54;50.66;101603.42;108118;1287;22493;-66
2023/02/15 06:03:18;;;;;;;3.00;0.90;;;;;;;6.61;50.23;101603.25;108064;1287;21994;-67
2023/02/15 06:05:45;;;;;;;3.60;0.90;;;;;;;6.66;50.00;101604.23;108024;1288;21975;-61
2023/02/15 06:08:10;;;;;;;2.70;0.70;;;;;;;6.65;50.14;101601.06;107985;1287;21988;-68
2023/02/15 06:10:36;;;;;;;4.40;1.50;;;;;;;6.68;50.27;101599.05;108030;1288;21992;-61
2023/02/15 06:13:02;;;;;;;6.10;1.70;;;;;;;6.77;50.51;101601.34;107986;1277;21997;-67
2023/02/15 06:15:30;;;;;;;3.70;1.20;;;;;;;6.87;50.67;101602.95;108082;1287;21992;-61
2023/02/15 06:17:55;;;;;;;2.60;1.30;;;;;;;6.94;50.72;101599.97;107996;1275;22012;-62
2023/02/15 06:20:21;;;;;;;3.50;1.30;;;;;;;7.03;50.76;101598.08;108119;1282;22111;-68
2023/02/15 06:22:48;;;;;;;2.60;1.10;;;;;;;7.08;50.72;101598.87;107999;1283;22028;-68
2023/02/15 06:25:13;;;;;;;6.10;1.10;;;;;;;7.11;50.57;101598.94;108064;1285;23778;-61
2023/02/15 06:27:41;;;;;;;5.10;1.50;;;;;;;7.13;50.19;101598.81;108054;1288;21988;-61
2023/02/15 06:30:07;;;;;;;5.30;1.90;;;;;;;7.15;49.90;101596.94;108078;1277;22005;-67
2023/02/15 06:32:33;;;;;;;4.10;1.40;;;;;;;7.22;50.22;101599.70;107998;1287;22001;-62
2023/02/15 06:34:59;;;;;;;3.90;1.50;;;;;;;7.25;50.02;101601.00;107985;1288;23043;-67
2023/02/15 06:37:25;;;;;;;6.90;1.60;;;;;;;7.31;50.08;101603.89;107987;1287;21997;-64
2023/02/15 06:39:50;;;;;;;5.00;1.70;;;;;;;7.34;50.11;101608.14;107384;1283;1002378;-67
2023/02/15 06:42:18;;;;;;;2.40;1.00;;;;;;;7.41;50.20;101612.16;108066;1283;21991;-63
2023/02/15 06:44:44;;;;;;;3.10;1.10;;;;;;;7.46;50.10;101613.84;108020;1288;22003;-61
2023/02/15 06:47:10;;;;;;;4.90;1.30;;;;;;;7.49;50.00;101610.38;108043;1276;22027;-62
2023/02/15 06:49:37;;;;;;;3.60;1.60;;;;;;;7.52;50.04;101613.23;108052;1287;21999;-62
2023/02/15 06:52:03;;;;;;;6.20;1.30;;;;;;;7.52;49.90;101609.23;108024;1275;21986;-62
2023/02/15 06:54:29;;;;;;;5.20;1.80;;;;;;;7.49;49.58;101607.42;108084;1288;22068;-62
2023/02/15 06:56:55;;;;;;;5.70;1.40;;;;;;;7.49;50.09;101606.90;108011;1288;21993;-68
2023/02/15 06:59:21;;;;;;;3.90;1.50;;;;;;;7.52;50.54;101602.23;108055;1288;22371;-62
2023/02/15 07:01:48;;;;;;;4.10;1.80;;;;;;;7.63;50.68;101600.01;107993;1288;21990;-62
2023/02/15 07:04:16;;;;;;;4.00;1.20;;;;;;;7.74;50.29;101591.11;107723;1288;290955;-62
2023/02/15 07:06:42;;;;;;;7.30;1.80;;;;;;;7.86;50.41;101591.01;108073;1287;24438;-62
2023/02/15 07:09:08;;;;;;;4.50;1.70;;;;;;;7.99;50.63;101590.36;107866;1288;21962;-62
2023/02/15 07:14:21;;;;;;;4.00;1.40;;;;;;;8.37;49.98;101588.37;108040;1288;23173;-62
2023/02/15 07:16:48;;;;;;;4.50;1.50;;;;;;;8.50;49.79;101587.20;107971;1288;21989;-63
2023/02/15 07:19:13;;;;;;;5.10;1.30;;;;;;;8.60;49.33;101585.80;108163;1287;22007;-68
2023/02/15 07:21:40;;;;;;;4.80;1.80;;;;;;;8.66;48.77;101586.23;108044;1287;21997;-68
2023/02/15 07:24:07;;;;;;;5.60;1.60;;;;;;;8.72;49.05;101578.98;107950;1286;21987;-68
2023/02/15 07:26:32;;;;;;;2.90;1.20;;;;;;;8.81;49.37;101581.02;108097;1288;22005;-68
2023/02/15 07:28:58;;;;;;;4.70;1.00;;;;;;;8.91;49.59;101577.30;107935;1276;21991;-63
2023/02/15 07:31:24;;;;;;;3.50;1.10;;;;;;;9.02;49.93;101579.04;108682;1283;22002;-63
2023/02/15 07:33:50;;;;;;;4.80;1.40;;;;;;;9.13;49.84;101575.85;108040;1288;22000;-68
2023/02/15 07:36:16;;;;;;;7.80;1.60;;;;;;;9.20;49.40;101572.95;107159;1286;1002383;-67
2023/02/15 07:38:43;;;;;;;4.00;1.50;;;;;;;9.25;49.37;101573.73;108036;1277;22019;-64
2023/02/15 07:41:29;;;;;;;4.00;1.60;;;;;;;9.31;49.82;101576.23;108065;1287;21999;-63
2023/02/15 07:43:55;;;;;;;4.40;1.40;;;;;;;9.34;49.35;101581.19;107958;1287;21994;-68
2023/02/15 07:46:21;;;;;;;2.60;1.10;;;;;;;9.39;49.24;101581.77;108050;1287;22027;-63
2023/02/15 07:48:47;;;;;;;2.90;1.20;;;;;;;9.41;49.01;101583.02;108002;1283;22421;-67
2023/02/15 07:51:15;;;;;;;2.90;1.10;;;;;;;9.43;48.90;101582.17;108082;1287;21990;-63
2023/02/15 07:53:42;;;;;;;5.30;1.30;;;;;;;9.44;48.57;101581.83;108124;1282;22025;-67
2023/02/15 07:56:10;;;;;;;4.30;1.30;;;;;;;9.44;48.13;101582.88;108132;1287;22046;-62
2023/02/15 07:58:50;;;;;;;4.90;1.40;;;;;;;9.38;47.82;101582.80;108098;1274;21994;-66
2023/02/15 08:01:19;;;;;;;4.60;1.50;;;;;;;9.41;48.54;101585.46;107965;1288;21990;-66
2023/02/15 08:03:45;;;;;;;3.40;1.40;;;;;;;9.44;48.84;101586.56;108037;1288;21996;-66
2023/02/15 08:06:12;;;;;;;3.80;1.40;;;;;;;9.36;48.15;101581.56;108036;1288;22002;-61
2023/02/15 08:08:39;;;;;;;3.20;1.60;;;;;;;9.42;48.97;101578.48;108021;1288;22046;-63
2023/02/15 08:13:56;;;;;;;6.00;1.60;;;;;;;9.55;49.39;101580.36;108011;1286;22405;-66
2023/02/15 08:16:26;;;;;;;6.90;1.80;;;;;;;9.57;49.07;101582.31;108028;1287;22012;-65
2023/02/15 08:18:52;;;;;;;4.50;1.90;;;;;;;9.58;49.01;101583.03;108945;1287;23635;-62
2023/02/15 08:21:19;;;;;;;5.40;1.80;;;;;;;9.51;47.77;101587.15;107339;1287;1004089;-65
2023/02/15 08:23:45;;;;;;;6.50;2.10;;;;;;;9.39;47.17;101590.02;107986;1275;21998;-62
2023/02/15 08:26:11;;;;;;;6.40;2.20;;;;;;;9.39;47.61;101592.11;108008;1283;21990;-61
2023/02/15 08:28:39;;;;;;;6.00;2.10;;;;;;;9.42;47.99;101595.48;108054;1287;21989;-65
2023/02/15 08:31:09;;;;;;;4.60;1.80;;;;;;;9.43;47.63;101593.73;107993;1288;21992;-65
2023/02/15 08:33:36;;;;;;;3.70;1.30;;;;;;;9.37;47.22;101595.59;107999;1288;21998;-65
2023/02/15 08:36:06;;;;;;;7.70;2.70;;;;;;;9.34;46.94;101591.69;108157;1287;23753;-61
2023/02/15 08:38:33;;;;;;;5.70;2.40;;;;;;;9.33;47.11;101587.30;108235;1287;23627;-65
2023/02/15 08:41:12;;;;;;;7.30;2.00;;;;;;;9.34;47.34;101587.48;108004;1287;22182;-64
2023/02/15 08:43:38;;;;;;;5.40;1.80;;;;;;;9.35;47.56;101582.95;108051;1287;21986;-65
2023/02/15 08:46:05;;;;;;;7.40;2.10;;;;;;;9.39;47.40;101581.95;108074;1287;21999;-66
2023/02/15 08:48:31;;;;;;;8.40;2.30;;;;;;;9.45;47.55;101580.61;107938;1285;22102;-66
2023/02/15 08:50:58;;;;;;;5.20;1.70;;;;;;;9.49;47.61;101582.76;108027;1287;22174;-66
2023/02/15 08:53:25;;;;;;;8.30;2.00;;;;;;;9.54;47.67;101581.08;107861;1288;22780;-66
2023/02/15 08:55:57;;;;;;;3.90;2.20;;;;;;;9.58;47.41;101578.83;108079;1288;22001;-63
2023/02/15 08:58:23;;;;;;;7.80;3.00;;;;;;;9.51;46.51;101583.15;108130;1287;22028;-63
2023/02/15 09:00:51;;;;;;;9.30;5.80;;;;;;;9.44;45.57;101591.65;108061;1287;22001;-62
2023/02/15 09:03:16;;;;;;;8.90;4.80;;;;;;;9.56;46.35;101594.40;107851;1288;23127;-62
2023/02/15 09:05:42;;;;;;;4.60;2.50;;;;;;;9.59;46.36;101598.47;107997;1283;21997;-65
2023/02/15 09:08:08;;;;;;;5.60;2.10;;;;;;;9.53;45.63;101597.17;108069;1286;21992;-65
2023/02/15 09:10:36;;;;;;;5.50;1.90;;;;;;;9.49;45.17;101595.89;108007;1287;23062;-66
2023/02/15 09:13:03;;;;;;;10.50;5.70;;;;;;;9.45;45.00;101593.07;107275;1287;1002946;-66
2023/02/15 09:15:31;;;;;;;7.30;3.80;;;;;;;9.59;45.70;101592.33;108093;1287;21982;-67
2023/02/15 09:17:58;;;;;;;18.40;8.30;;;;;;;9.65;45.71;101588.73;108167;1275;22002;-60
2023/02/15 09:20:24;;;;;;;64.20;39.50;;;;;;;9.64;45.52;101589.23;108114;1287;22002;-60
2023/02/15 09:22:52;;;;;;;6.50;4.00;;;;;;;9.58;45.14;101590.73;108072;1287;22008;-64
2023/02/15 09:25:18;;;;;;;6.60;2.60;;;;;;;9.57;44.52;101591.26;108181;1287;21993;-65
2023/02/15 09:27:43;;;;;;;7.00;3.00;;;;;;;9.49;44.40;101590.12;108012;1276;21985;-66
2023/02/15 09:30:10;;;;;;;7.40;2.90;;;;;;;9.55;44.45;101591.93;108071;1284;21988;-66
2023/02/15 09:32:36;;;;;;;7.00;3.60;;;;;;;9.57;44.27;101589.33;108024;1288;21965;-66
2023/02/15 09:35:03;;;;;;;21.40;13.30;;;;;;;9.63;44.74;101586.94;108015;1276;21993;-63
2023/02/15 09:37:31;;;;;;;12.10;8.30;;;;;;;9.73;45.01;101580.91;108024;1287;21994;-66
2023/02/15 09:39:57;;;;;;;19.00;9.00;;;;;;;9.68;44.41;101583.85;108013;1287;22006;-66
2023/02/15 09:42:54;;;;;;;16.60;7.90;;;;;;;9.73;44.31;101584.95;107999;1288;22007;-64
2023/02/15 09:45:26;;;;;;;25.20;9.80;;;;;;;9.77;44.05;101587.98;107358;1286;1002463;-66
2023/02/15 09:48:01;;;;;;;56.90;18.40;;;;;;;9.73;42.95;101584.59;108070;1288;23074;-69
2023/02/15 09:50:41;;;;;;;58.00;16.20;;;;;;;9.75;43.60;101581.64;108122;1288;21990;-63
2023/02/15 09:53:43;;;;;;;20.90;8.80;;;;;;;9.66;41.66;101578.91;108108;1287;21991;-65
2023/02/15 09:56:16;;;;;;;17.90;9.30;;;;;;;9.71;42.76;101572.13;108125;1281;21995;-62
2023/02/15 09:58:50;;;;;;;12.10;6.80;;;;;;;9.70;42.51;101572.64;108015;1287;23056;-61
2023/02/15 10:01:23;;;;;;;9.10;3.80;;;;;;;9.60;41.55;101575.87;108153;1288;22009;-66
2023/02/15 10:04:04;;;;;;;6.40;1.90;;;;;;;9.49;40.20;101579.60;108139;1288;22000;-61
2023/02/15 10:06:46;;;;;;;3.00;1.40;;;;;;;9.56;40.93;101584.42;108076;1287;22024;-62
2023/02/15 10:09:22;;;;;;;2.20;1.20;;;;;;;9.57;41.21;101583.73;108012;1287;22002;-63
2023/02/15 15:05:54;;;;;;;7.00;4.40;;;;;;;9.07;38.99;101639.84;107371;1288;1003098;-65
2023/02/15 15:08:24;;;;;;;6.70;4.80;;;;;;;8.94;39.23;101643.69;107350;1286;1002350;-62
2023/02/15 15:10:53;;;;;;;7.10;4.40;;;;;;;8.82;39.21;101642.29;108235;1286;22455;-63
2023/02/15 15:13:29;;;;;;;5.90;3.60;;;;;;;8.68;39.11;101645.40;107958;1287;23612;-66
2023/02/15 15:15:55;;;;;;;5.50;3.60;;;;;;;8.56;39.43;101653.63;107364;1286;1002031;-62
2023/02/15 15:18:44;;;;;;;8.90;6.10;;;;;;;8.46;39.58;101653.94;108109;1286;23740;-65
2023/02/15 15:21:10;;;;;;;8.50;5.20;;;;;;;8.31;39.53;101652.11;108117;1286;21983;-63
2023/02/15 15:23:43;;;;;;;4.90;3.60;;;;;;;8.24;39.65;101657.74;108080;1282;21985;-64
2023/02/15 15:26:37;;;;;;;5.40;3.20;;;;;;;8.14;39.60;101657.92;108216;1286;22158;-64
2023/02/15 15:29:03;;;;;;;8.50;4.80;;;;;;;8.05;39.60;101659.86;108135;1286;22001;-65
2023/02/15 15:31:35;;;;;;;9.20;4.50;;;;;;;8.00;39.76;101659.92;108088;1286;21989;-66
2023/02/15 15:34:43;;;;;;;9.90;5.10;;;;;;;7.97;39.79;101656.91;108179;1286;23094;-62
2023/02/15 15:37:14;;;;;;;13.10;6.30;;;;;;;7.95;39.80;101658.64;107744;1292;22112;-64
2023/02/15 15:39:43;;;;;;;14.20;6.00;;;;;;;7.91;39.89;101660.83;106979;1292;1002409;-62
2023/02/15 15:42:51;;;;;;;9.20;4.90;;;;;;;7.90;40.06;101665.52;107918;1283;22003;-62
2023/02/15 15:45:23;;;;;;;16.00;10.80;;;;;;;7.87;40.06;101669.30;108127;1280;22001;-62
2023/02/15 15:48:01;;;;;;;18.60;15.00;;;;;;;7.80;40.07;101667.60;108108;1286;22026;-63
2023/02/15 15:50:27;;;;;;;19.50;17.50;;;;;;;7.68;40.05;101664.38;108100;1286;22458;-64
2023/02/15 15:52:58;;;;;;;14.10;9.50;;;;;;;7.62;40.02;101666.88;108074;1286;23640;-64
2023/02/15 15:55:25;;;;;;;10.10;5.10;;;;;;;7.54;40.08;101668.11;107451;1286;1002762;-66
2023/02/15 15:57:53;;;;;;;13.30;5.80;;;;;;;7.48;40.33;101674.10;107801;1274;1002397;-66
2023/02/15 16:00:34;;;;;;;14.30;6.30;;;;;;;7.40;40.42;101676.05;108038;1286;23731;-62
2023/02/15 16:03:00;;;;;;;15.60;7.00;;;;;;;7.31;40.29;101679.70;108056;1286;22521;-65
2023/02/15 16:05:26;;;;;;;14.80;6.80;;;;;;;7.23;40.51;101678.12;108102;1286;21989;-65
2023/02/15 16:07:52;;;;;;;13.30;6.70;;;;;;;7.15;40.54;101679.34;108083;1286;21998;-65
2023/02/15 16:10:22;;;;;;;16.20;7.60;;;;;;;7.07;40.42;101683.19;108276;1286;22175;-62
2023/02/15 16:12:48;;;;;;;16.10;7.50;;;;;;;7.03;40.60;101684.82;108181;1286;21997;-62
2023/02/15 16:15:23;;;;;;;13.20;6.50;;;;;;;6.99;40.86;101686.48;107868;1286;21990;-65
2023/02/15 16:17:53;;;;;;;14.10;7.70;;;;;;;6.93;40.66;101693.30;108187;1286;21990;-62
2023/02/15 16:20:19;;;;;;;13.60;7.60;;;;;;;6.86;40.81;101694.02;108088;1286;21990;-65
2023/02/15 16:22:46;;;;;;;17.30;8.60;;;;;;;6.81;40.83;101695.30;108132;1284;22001;-66
2023/02/15 16:25:47;;;;;;;19.20;9.70;;;;;;;6.75;41.00;101693.92;108118;1286;21991;-66
2023/02/15 16:28:13;;;;;;;18.60;9.30;;;;;;;6.69;41.02;101694.66;108058;1286;22012;-60
2023/02/15 16:30:40;;;;;;;23.50;10.20;;;;;;;6.61;40.95;101693.08;108050;1286;23634;-60
2023/02/15 16:33:15;;;;;;;23.00;10.40;;;;;;;6.54;40.89;101694.64;108112;1283;21992;-60
2023/02/15 16:35:53;;;;;;;15.60;8.20;;;;;;;6.45;40.86;101696.48;108087;1274;21998;-60
2023/02/15 16:38:52;;;;;;;14.60;7.20;;;;;;;6.35;41.01;101700.08;107378;1286;1002390;-65
2023/02/15 16:41:23;;;;;;;12.50;5.20;;;;;;;6.22;41.40;101700.41;108062;1286;22170;-63
2023/02/15 16:43:49;;;;;;;9.60;4.60;;;;;;;6.10;41.29;101700.63;108095;1283;21992;-61
2023/02/15 16:46:18;;;;;;;11.00;4.10;;;;;;;6.01;41.35;101699.48;108223;1280;21997;-60
2023/02/15 16:48:45;;;;;;;11.60;4.90;;;;;;;5.93;41.82;101698.41;108162;1286;22000;-60
2023/02/15 16:51:18;;;;;;;17.50;6.40;;;;;;;5.87;41.90;101702.06;107422;1286;1002057;-64
2023/02/15 16:53:46;;;;;;;16.20;7.30;;;;;;;5.85;41.68;101706.71;107939;1286;22049;-60
2023/02/15 16:56:12;;;;;;;19.20;10.60;;;;;;;5.88;42.25;101706.95;108082;1286;21993;-64
2023/02/15 16:58:41;;;;;;;41.20;29.50;;;;;;;5.94;42.05;101706.29;107326;1286;1002429;-61
2023/02/15 17:01:09;;;;;;;29.70;22.40;;;;;;;5.95;41.87;101707.17;107363;1283;1002411;-60